createdAt,value
2018-10-11T00:00:18.104Z,13.75
2018-10-11T00:01:18.383Z,13.75
2018-10-11T00:03:18.422Z,13.69
2018-10-11T00:04:18.189Z,13.63
2018-10-11T00:05:18.466Z,13.6
2018-10-11T00:07:18.507Z,13.64
2018-10-11T00:09:18.552Z,13.62
2018-10-11T00:10:18.575Z,13.63
2018-10-11T00:11:18.340Z,13.62
2018-10-11T00:12:18.615Z,13.62
2018-10-11T00:13:18.636Z,13.57
2018-10-11T00:14:18.662Z,13.66
2018-10-11T00:15:18.678Z,13.64
2018-10-11T00:16:18.440Z,13.64
2018-10-11T00:17:18.717Z,13.63
2018-10-11T00:18:33.145Z,13.64
2018-10-11T00:19:18.763Z,13.66
2018-10-11T00:20:18.789Z,13.62
2018-10-11T00:21:18.803Z,13.66
2018-10-11T00:22:18.308Z,13.6
2018-10-11T00:23:18.848Z,13.59
2018-10-11T00:25:18.890Z,13.6
2018-10-11T00:26:18.910Z,13.57
2018-10-11T00:27:18.672Z,13.62
2018-10-11T00:28:18.947Z,13.6
2018-10-11T00:29:18.710Z,13.55
2018-10-11T00:30:18.734Z,13.52
2018-10-11T00:31:18.754Z,13.62
2018-10-11T00:32:19.033Z,13.57
2018-10-11T00:33:19.053Z,13.54
2018-10-11T00:34:33.477Z,13.6
2018-10-11T00:35:18.839Z,13.57
2018-10-11T00:36:18.860Z,13.54
2018-10-11T00:37:18.890Z,13.51
2018-10-11T00:38:19.162Z,13.52
2018-10-11T00:39:19.177Z,13.51
2018-10-11T00:42:19.253Z,13.54
2018-10-11T00:44:19.283Z,13.38
2018-10-11T00:45:19.306Z,13.45
2018-10-11T00:46:19.333Z,13.48
2018-10-11T00:47:34.006Z,13.49
2018-10-11T00:48:19.105Z,13.57
2018-10-11T00:49:19.463Z,13.51
2018-10-11T00:50:19.406Z,13.54
2018-10-11T00:51:19.426Z,13.46
2018-10-11T00:52:19.450Z,13.46
2018-10-11T00:55:19.567Z,13.48
2018-10-11T00:56:33.932Z,13.6
2018-10-11T00:57:19.295Z,13.48
2018-10-11T00:58:19.314Z,13.46
2018-10-11T00:59:19.590Z,13.46
2018-10-11T01:00:19.715Z,13.49
2018-10-11T01:01:19.637Z,13.57
2018-10-11T01:03:19.424Z,13.48
2018-10-11T01:04:19.447Z,13.49
2018-10-11T01:05:19.723Z,13.38
2018-10-11T01:06:19.752Z,13.48
2018-10-11T01:07:19.760Z,13.46
2018-10-11T01:08:19.779Z,13.49
2018-10-11T01:09:20.177Z,13.45
2018-10-11T01:10:19.577Z,13.36
2018-10-11T01:12:34.521Z,13.33
2018-10-11T01:13:19.625Z,13.38
2018-10-11T01:14:19.647Z,13.41
2018-10-11T01:16:34.610Z,13.41
2018-10-11T01:17:19.969Z,13.41
2018-10-11T01:18:19.730Z,13.39
2018-10-11T01:19:19.761Z,13.41
2018-10-11T01:20:34.689Z,13.38
2018-10-11T01:21:20.055Z,13.38
2018-10-11T01:22:20.070Z,13.38
2018-10-11T01:23:20.091Z,13.36
2018-10-11T01:24:20.123Z,13.33
2018-10-11T01:25:19.874Z,13.33
2018-10-11T01:26:19.997Z,13.3
2018-10-11T01:27:19.917Z,13.22
2018-10-11T01:28:34.854Z,13.19
2018-10-11T01:29:20.218Z,13.36
2018-10-11T01:30:20.244Z,13.32
2018-10-11T01:31:20.259Z,13.22
2018-10-11T01:32:20.276Z,13.41
2018-10-11T01:33:20.305Z,13.3
2018-10-11T01:34:20.316Z,13.26
2018-10-11T01:35:20.343Z,13.23
2018-10-11T01:36:20.105Z,13.17
2018-10-11T01:37:20.122Z,13.17
2018-10-11T01:38:20.403Z,13.15
2018-10-11T01:39:20.167Z,13.14
2018-10-11T01:40:20.440Z,13.19
2018-10-11T01:41:20.470Z,13.12
2018-10-11T01:42:20.483Z,13.15
2018-10-11T01:43:35.164Z,13.15
2018-10-11T01:44:20.530Z,13.17
2018-10-11T01:45:20.543Z,13.11
2018-10-11T01:46:20.310Z,13.14
2018-10-11T01:47:20.603Z,13.04
2018-10-11T01:49:35.291Z,13.03
2018-10-11T01:50:20.650Z,13.05
2018-10-11T01:51:20.689Z,13.03
2018-10-11T01:52:20.688Z,13.03
2018-10-11T01:53:20.711Z,13.01
2018-10-11T01:54:20.730Z,12.97
2018-10-11T01:55:20.764Z,12.97
2018-10-11T01:56:20.783Z,12.89
2018-10-11T01:57:20.552Z,12.96
2018-10-11T01:58:20.816Z,12.9
2018-10-11T01:59:20.836Z,12.89
2018-10-11T02:00:20.953Z,12.89
2018-10-11T02:01:20.871Z,12.95
2018-10-11T02:03:20.916Z,12.86
2018-10-11T02:04:20.941Z,12.83
2018-10-11T02:05:20.954Z,12.74
2018-10-11T02:06:20.718Z,12.78
2018-10-11T02:07:21.028Z,12.82
2018-10-11T02:08:20.761Z,12.74
2018-10-11T02:09:21.157Z,12.75
2018-10-11T02:10:21.059Z,12.83
2018-10-11T02:11:21.074Z,12.82
2018-10-11T02:12:21.104Z,12.77
2018-10-11T02:14:21.138Z,12.82
2018-10-11T02:15:35.819Z,12.75
2018-10-11T02:16:21.178Z,12.68
2018-10-11T02:18:21.223Z,12.7
2018-10-11T02:19:21.250Z,12.7
2018-10-11T02:20:21.260Z,12.65
2018-10-11T02:21:21.287Z,12.49
2018-10-11T02:22:21.301Z,12.57
2018-10-11T02:23:21.322Z,12.64
2018-10-11T02:24:20.828Z,12.59
2018-10-11T02:25:21.363Z,12.56
2018-10-11T02:26:21.390Z,12.53
2018-10-11T02:27:21.406Z,12.49
2018-10-11T02:28:21.426Z,12.6
2018-10-11T02:30:21.471Z,12.52
2018-10-11T02:31:36.145Z,12.47
2018-10-11T02:32:21.515Z,12.47
2018-10-11T02:33:21.012Z,12.46
2018-10-11T02:34:21.547Z,12.46
2018-10-11T02:35:21.319Z,12.46
2018-10-11T02:36:21.586Z,12.53
2018-10-11T02:37:21.609Z,12.46
2018-10-11T02:38:21.369Z,12.49
2018-10-11T02:39:21.755Z,12.47
2018-10-11T02:40:36.327Z,12.42
2018-10-11T02:41:21.685Z,12.52
2018-10-11T02:42:21.713Z,12.46
2018-10-11T02:43:21.735Z,12.47
2018-10-11T02:44:21.748Z,12.49
2018-10-11T02:45:21.769Z,12.45
2018-10-11T02:46:21.789Z,12.5
2018-10-11T02:47:36.469Z,12.49
2018-10-11T02:48:21.569Z,12.46
2018-10-11T02:49:21.853Z,12.54
2018-10-11T02:50:21.972Z,12.52
2018-10-11T02:51:21.890Z,12.5
2018-10-11T02:52:21.910Z,12.41
2018-10-11T02:53:21.944Z,12.49
2018-10-11T02:54:21.952Z,12.49
2018-10-11T02:55:36.631Z,12.47
2018-10-11T02:56:21.992Z,12.46
2018-10-11T02:57:22.010Z,12.46
2018-10-11T02:58:22.035Z,12.41
2018-10-11T02:59:22.057Z,12.32
2018-10-11T03:00:21.815Z,12.49
2018-10-11T03:01:22.099Z,12.42
2018-10-11T03:02:22.117Z,12.39
2018-10-11T03:04:22.154Z,12.38
2018-10-11T03:05:22.179Z,12.45
2018-10-11T03:06:22.195Z,12.35
2018-10-11T03:07:22.213Z,12.39
2018-10-11T03:08:22.232Z,12.34
2018-10-11T03:09:21.998Z,12.46
2018-10-11T03:10:22.014Z,12.39
2018-10-11T03:11:22.294Z,12.31
2018-10-11T03:12:22.057Z,12.39
2018-10-11T03:13:22.339Z,12.29
2018-10-11T03:14:36.756Z,12.27
2018-10-11T03:15:22.377Z,12.35
2018-10-11T03:16:22.138Z,12.39
2018-10-11T03:17:22.155Z,12.35
2018-10-11T03:18:37.099Z,12.29
2018-10-11T03:19:22.199Z,12.29
2018-10-11T03:20:22.217Z,12.32
2018-10-11T03:21:22.237Z,12.29
2018-10-11T03:22:22.516Z,12.27
2018-10-11T03:23:22.535Z,12.23
2018-10-11T03:24:22.822Z,12.21
2018-10-11T03:25:22.590Z,12.17
2018-10-11T03:26:37.259Z,12.23
2018-10-11T03:27:22.620Z,12.21
2018-10-11T03:28:22.640Z,12.16
2018-10-11T03:29:22.664Z,12.17
2018-10-11T03:30:22.698Z,12.19
2018-10-11T03:31:22.715Z,12.24
2018-10-11T03:32:22.723Z,12.24
2018-10-11T03:33:22.739Z,12.23
2018-10-11T03:34:22.760Z,12.28
2018-10-11T03:35:22.521Z,12.24
2018-10-11T03:36:22.540Z,12.19
2018-10-11T03:37:22.820Z,12.21
2018-10-11T03:38:22.580Z,12.28
2018-10-11T03:40:22.626Z,12.21
2018-10-11T03:41:22.901Z,12.27
2018-10-11T03:42:22.924Z,12.23
2018-10-11T03:43:22.677Z,12.32
2018-10-11T03:44:22.958Z,12.31
2018-10-11T03:45:22.981Z,12.37
2018-10-11T03:46:23.119Z,12.28
2018-10-11T03:47:22.760Z,12.28
2018-10-11T03:49:23.096Z,12.27
2018-10-11T03:50:37.792Z,12.24
2018-10-11T03:51:22.844Z,12.19
2018-10-11T03:52:22.859Z,12.17
2018-10-11T03:53:22.883Z,12.23
2018-10-11T03:54:23.159Z,12.32
2018-10-11T03:55:22.927Z,12.31
2018-10-11T03:56:23.200Z,12.27
2018-10-11T03:57:23.220Z,12.27
2018-10-11T03:58:23.238Z,12.27
2018-10-11T03:59:23.260Z,12.27
2018-10-11T04:00:37.939Z,12.21
2018-10-11T04:01:23.317Z,12.29
2018-10-11T04:02:23.330Z,12.17
2018-10-11T04:03:23.337Z,12.17
2018-10-11T04:04:23.358Z,12.14
2018-10-11T04:05:23.378Z,12.16
2018-10-11T04:06:38.058Z,12.12
2018-10-11T04:07:23.517Z,12.2
2018-10-11T04:08:23.440Z,12.04
2018-10-11T04:09:23.460Z,12.04
2018-10-11T04:10:23.220Z,12.04
2018-10-11T04:11:23.512Z,12.01
2018-10-11T04:12:23.262Z,12.01
2018-10-11T04:13:23.638Z,12.02
2018-10-11T04:14:23.560Z,12.02
2018-10-11T04:15:23.347Z,11.94
2018-10-11T04:16:23.613Z,12.1
2018-10-11T04:17:23.620Z,11.98
2018-10-11T04:18:23.639Z,12.01
2018-10-11T04:19:23.669Z,11.94
2018-10-11T04:20:23.421Z,11.88
2018-10-11T04:21:23.701Z,11.91
2018-10-11T04:22:38.382Z,11.96
2018-10-11T04:23:23.840Z,11.95
2018-10-11T04:24:23.760Z,11.95
2018-10-11T04:25:23.524Z,11.94
2018-10-11T04:26:23.542Z,11.94
2018-10-11T04:27:23.827Z,11.86
2018-10-11T04:28:23.840Z,11.86
2018-10-11T04:29:23.858Z,11.83
2018-10-11T04:30:23.881Z,11.78
2018-10-11T04:31:23.639Z,11.73
2018-10-11T04:32:23.663Z,11.7
2018-10-11T04:33:23.678Z,11.75
2018-10-11T04:34:23.960Z,11.79
2018-10-11T04:35:24.034Z,11.69
2018-10-11T04:36:38.671Z,11.73
2018-10-11T04:37:23.763Z,11.75
2018-10-11T04:39:23.796Z,11.75
2018-10-11T04:40:23.818Z,11.8
2018-10-11T04:42:23.860Z,11.78
2018-10-11T04:43:24.266Z,11.72
2018-10-11T04:44:24.155Z,11.75
2018-10-11T04:45:23.917Z,11.67
2018-10-11T04:46:38.857Z,11.72
2018-10-11T04:47:24.219Z,11.65
2018-10-11T04:48:38.893Z,11.67
2018-10-11T04:49:24.255Z,11.7
2018-10-11T04:50:24.273Z,11.67
2018-10-11T04:51:24.296Z,11.69
2018-10-11T04:53:39.159Z,11.69
2018-10-11T04:55:24.115Z,11.7
2018-10-11T04:56:24.393Z,11.7
2018-10-11T04:57:24.417Z,11.73
2018-10-11T04:58:24.435Z,11.67
2018-10-11T04:59:24.462Z,11.78
2018-10-11T05:00:24.218Z,11.73
2018-10-11T05:02:24.253Z,11.73
2018-10-11T05:03:24.533Z,11.65
2018-10-11T05:04:24.551Z,11.76
2018-10-11T05:05:24.823Z,11.73
2018-10-11T05:06:24.330Z,11.75
2018-10-11T05:08:24.633Z,11.75
2018-10-11T05:10:24.412Z,11.78
2018-10-11T05:11:24.432Z,11.82
2018-10-11T05:12:39.471Z,11.75
2018-10-11T05:13:24.470Z,11.76
2018-10-11T05:14:24.491Z,11.7
2018-10-11T05:15:24.768Z,11.7
2018-10-11T05:16:24.790Z,11.82
2018-10-11T05:17:25.040Z,11.8
2018-10-11T05:18:24.571Z,11.79
2018-10-11T05:19:24.593Z,11.72
2018-10-11T05:20:24.872Z,11.79
2018-10-11T05:21:24.717Z,11.8
2018-10-11T05:22:24.916Z,11.8
2018-10-11T05:23:24.936Z,11.9
2018-10-11T05:24:24.943Z,11.8
2018-10-11T05:25:39.624Z,11.75
2018-10-11T05:26:25.085Z,11.83
2018-10-11T05:27:25.016Z,11.8
2018-10-11T05:28:25.029Z,11.78
2018-10-11T05:29:24.786Z,11.8
2018-10-11T05:30:24.808Z,11.91
2018-10-11T05:31:24.826Z,11.91
2018-10-11T05:32:25.400Z,11.91
2018-10-11T05:33:25.128Z,11.94
2018-10-11T05:34:24.626Z,11.96
2018-10-11T05:35:25.160Z,11.96
2018-10-11T05:36:25.181Z,11.94
2018-10-11T05:37:25.200Z,11.9
2018-10-11T05:38:40.053Z,11.95
2018-10-11T05:40:25.268Z,11.99
2018-10-11T05:41:39.941Z,12.02
2018-10-11T05:42:25.302Z,11.99
2018-10-11T05:43:25.323Z,11.98
2018-10-11T05:44:25.582Z,11.99
2018-10-11T05:45:25.104Z,11.98
2018-10-11T05:46:25.386Z,11.95
2018-10-11T05:47:25.399Z,11.94
2018-10-11T05:48:25.428Z,11.96
2018-10-11T05:49:25.436Z,11.96
2018-10-11T05:51:25.479Z,11.91
2018-10-11T05:52:25.496Z,11.94
2018-10-11T05:53:25.522Z,11.94
2018-10-11T05:54:25.538Z,11.98
2018-10-11T05:55:25.561Z,12.1
2018-10-11T05:56:25.321Z,12.07
2018-10-11T05:57:40.257Z,12.02
2018-10-11T05:58:25.715Z,12.02
2018-10-11T05:59:25.639Z,12.1
2018-10-11T06:00:25.808Z,12.17
2018-10-11T06:01:25.684Z,12.34
2018-10-11T06:02:25.697Z,12.38
2018-10-11T06:03:25.721Z,12.52
2018-10-11T06:04:26.219Z,12.62
2018-10-11T06:05:40.420Z,12.64
2018-10-11T06:06:25.524Z,12.7
2018-10-11T06:07:25.803Z,12.85
2018-10-11T06:08:25.824Z,12.9
2018-10-11T06:09:25.867Z,13.07
2018-10-11T06:10:25.867Z,13.19
2018-10-11T06:11:25.632Z,13.19
2018-10-11T06:12:25.914Z,13.19
2018-10-11T06:13:40.601Z,13.41
2018-10-11T06:15:25.985Z,13.49
2018-10-11T06:16:26.002Z,13.52
2018-10-11T06:17:26.034Z,13.57
2018-10-11T06:19:40.737Z,13.64
2018-10-11T06:20:26.098Z,13.66
2018-10-11T06:21:40.781Z,13.62
2018-10-11T06:22:26.144Z,13.69
2018-10-11T06:23:26.169Z,13.77
2018-10-11T06:24:26.196Z,13.89
2018-10-11T06:25:26.224Z,13.84
2018-10-11T06:26:26.243Z,14
2018-10-11T06:27:26.006Z,14.04
2018-10-11T06:28:40.950Z,14.15
2018-10-11T06:29:26.314Z,14.18
2018-10-11T06:30:41.167Z,14.32
2018-10-11T06:31:26.363Z,14.4
2018-10-11T06:32:26.129Z,14.45
2018-10-11T06:33:26.419Z,14.4
2018-10-11T06:34:26.438Z,14.52
2018-10-11T06:35:26.462Z,14.58
2018-10-11T06:36:26.672Z,14.61
2018-10-11T06:37:41.173Z,14.61
2018-10-11T06:38:26.536Z,14.61
2018-10-11T06:39:26.575Z,14.72
2018-10-11T06:40:26.329Z,14.77
2018-10-11T06:41:26.357Z,14.92
2018-10-11T06:42:27.175Z,14.91
2018-10-11T06:43:26.664Z,15.06
2018-10-11T06:44:26.434Z,14.99
2018-10-11T06:45:26.714Z,15.06
2018-10-11T06:46:26.742Z,15.09
2018-10-11T06:47:26.770Z,15.1
2018-10-11T06:48:26.796Z,15.25
2018-10-11T06:49:26.825Z,15.28
2018-10-11T06:50:26.774Z,15.34
2018-10-11T06:51:26.874Z,15.35
2018-10-11T06:53:26.920Z,15.5
2018-10-11T06:54:26.690Z,15.47
2018-10-11T06:55:26.715Z,15.54
2018-10-11T06:56:27.003Z,15.57
2018-10-11T06:57:27.026Z,15.6
2018-10-11T06:58:26.895Z,15.65
2018-10-11T06:59:26.827Z,15.65
2018-10-11T07:00:41.770Z,15.92
2018-10-11T07:01:26.875Z,15.93
2018-10-11T07:02:27.159Z,15.97
2018-10-11T07:03:27.184Z,16.09
2018-10-11T07:04:27.213Z,16.12
2018-10-11T07:05:27.240Z,16.21
2018-10-11T07:06:27.274Z,16.14
2018-10-11T07:07:27.614Z,16.15
2018-10-11T07:08:27.061Z,16.33
2018-10-11T07:09:27.346Z,16.34
2018-10-11T07:10:27.113Z,16.33
2018-10-11T07:11:27.139Z,16.42
2018-10-11T07:12:27.162Z,16.49
2018-10-11T07:14:27.217Z,16.58
2018-10-11T07:15:27.242Z,16.56
2018-10-11T07:16:42.188Z,16.61
2018-10-11T07:17:27.555Z,16.7
2018-10-11T07:18:27.579Z,16.64
2018-10-11T07:19:27.955Z,16.73
2018-10-11T07:20:27.374Z,16.85
2018-10-11T07:21:27.655Z,16.79
2018-10-11T07:22:27.679Z,16.86
2018-10-11T07:23:27.451Z,16.82
2018-10-11T07:24:42.398Z,16.85
2018-10-11T07:25:42.428Z,17
2018-10-11T07:26:27.786Z,17.14
2018-10-11T07:27:27.816Z,17.19
2018-10-11T07:28:27.841Z,17.16
2018-10-11T07:29:27.872Z,17.18
2018-10-11T07:30:27.895Z,17.19
2018-10-11T07:31:27.918Z,17.33
2018-10-11T07:32:42.703Z,17.34
2018-10-11T07:34:27.830Z,17.36
2018-10-11T07:35:28.848Z,17.54
2018-10-11T07:36:27.789Z,17.56
2018-10-11T07:37:27.817Z,17.74
2018-10-11T07:38:27.846Z,17.71
2018-10-11T07:39:27.874Z,17.81
2018-10-11T07:40:28.464Z,17.87
2018-10-11T07:41:28.180Z,17.99
2018-10-11T07:44:28.001Z,18.14
2018-10-11T07:45:28.021Z,17.97
2018-10-11T07:46:28.048Z,18.12
2018-10-11T07:47:28.337Z,18.12
2018-10-11T07:48:43.023Z,18.35
2018-10-11T07:49:28.122Z,18.32
2018-10-11T07:50:28.407Z,18.48
2018-10-11T07:51:28.434Z,18.36
2018-10-11T07:52:28.198Z,18.36
2018-10-11T07:53:28.226Z,18.45
2018-10-11T07:54:28.511Z,18.5
2018-10-11T07:55:28.537Z,18.58
2018-10-11T07:56:28.608Z,18.6
2018-10-11T07:57:28.327Z,18.65
2018-10-11T07:58:28.352Z,18.58
2018-10-11T07:59:28.379Z,18.65
2018-10-11T08:00:28.661Z,18.69
2018-10-11T08:01:29.082Z,18.69
2018-10-11T08:02:28.714Z,18.75
2018-10-11T08:05:28.838Z,18.85
2018-10-11T08:06:28.813Z,18.9
2018-10-11T08:07:29.433Z,18.84
2018-10-11T08:08:28.798Z,18.88
2018-10-11T08:09:28.944Z,18.91
2018-10-11T08:10:29.370Z,19.06
2018-10-11T08:11:29.541Z,19.13
2018-10-11T08:12:29.001Z,19.18
2018-10-11T08:13:43.884Z,19.29
2018-10-11T08:14:29.017Z,19.32
2018-10-11T08:15:29.078Z,19.29
2018-10-11T08:16:29.512Z,19.37
2018-10-11T08:17:30.867Z,19.41
2018-10-11T08:18:29.171Z,19.41
2018-10-11T08:19:29.747Z,19.55
2018-10-11T08:20:29.294Z,19.5
2018-10-11T08:21:29.346Z,19.58
2018-10-11T08:22:29.220Z,19.63
2018-10-11T08:23:29.035Z,19.68
2018-10-11T08:24:29.242Z,19.66
2018-10-11T08:25:30.963Z,19.74
2018-10-11T08:26:30.322Z,19.73
2018-10-11T08:27:29.527Z,19.73
2018-10-11T08:28:44.028Z,19.77
2018-10-11T08:29:44.100Z,19.77
2018-10-11T08:31:29.514Z,19.78
2018-10-11T08:32:29.585Z,19.81
2018-10-11T08:33:29.597Z,19.76
2018-10-11T08:34:29.264Z,19.73
2018-10-11T08:35:43.947Z,19.83
2018-10-11T08:36:29.569Z,20.03
2018-10-11T08:37:29.757Z,19.94
2018-10-11T08:38:29.403Z,20.06
2018-10-11T08:40:29.669Z,20.03
2018-10-11T08:41:29.695Z,20.14
2018-10-11T08:42:29.721Z,20.06
2018-10-11T08:43:30.010Z,20.11
2018-10-11T08:44:29.769Z,20.14
2018-10-11T08:45:29.799Z,20.21
2018-10-11T08:46:29.661Z,20.13
2018-10-11T08:47:29.853Z,20.16
2018-10-11T08:49:29.898Z,20.28
2018-10-11T08:50:29.982Z,20.41
2018-10-11T08:51:44.604Z,20.38
2018-10-11T08:52:29.970Z,20.48
2018-10-11T08:53:30.159Z,20.35
2018-10-11T08:54:30.031Z,20.29
2018-10-11T08:55:29.997Z,20.35
2018-10-11T08:56:44.735Z,20.32
2018-10-11T08:57:30.095Z,20.41
2018-10-11T08:58:30.125Z,20.52
2018-10-11T08:59:30.148Z,20.51
2018-10-11T09:00:29.915Z,20.57
2018-10-11T09:01:29.981Z,20.69
2018-10-11T09:02:29.965Z,20.69
2018-10-11T09:03:30.662Z,20.85
2018-10-11T09:04:30.014Z,20.89
2018-10-11T09:05:30.310Z,21.01
2018-10-11T09:06:30.325Z,20.94
2018-10-11T09:07:44.749Z,20.94
2018-10-11T09:08:30.371Z,20.97
2018-10-11T09:09:30.249Z,21.04
2018-10-11T09:10:43.427Z,21.1
2018-10-11T09:11:30.486Z,21.12
2018-10-11T09:13:30.498Z,21.24
2018-10-11T09:14:45.187Z,21.32
2018-10-11T09:15:30.558Z,21.29
2018-10-11T09:16:30.575Z,21.28
2018-10-11T09:17:31.007Z,21.21
2018-10-11T09:18:30.623Z,21.21
2018-10-11T09:19:30.654Z,21.25
2018-10-11T09:20:30.425Z,21.32
2018-10-11T09:21:30.739Z,21.35
2018-10-11T09:22:30.468Z,21.49
2018-10-11T09:23:45.416Z,21.61
2018-10-11T09:24:30.534Z,21.52
2018-10-11T09:25:30.802Z,21.54
2018-10-11T09:26:30.859Z,21.59
2018-10-11T09:27:30.595Z,21.71
2018-10-11T09:28:30.622Z,21.82
2018-10-11T09:29:30.645Z,21.92
2018-10-11T09:31:30.695Z,21.98
2018-10-11T09:32:30.719Z,22.06
2018-10-11T09:33:30.749Z,22.1
2018-10-11T09:34:31.031Z,21.94
2018-10-11T09:35:30.802Z,22.1
2018-10-11T09:36:31.377Z,22.1
2018-10-11T09:37:30.590Z,22.1
2018-10-11T09:38:45.539Z,22.06
2018-10-11T09:39:30.898Z,22.03
2018-10-11T09:40:31.188Z,22.03
2018-10-11T09:41:31.213Z,22.09
2018-10-11T09:42:30.979Z,22.12
2018-10-11T09:43:31.018Z,22.17
2018-10-11T09:44:31.292Z,22.15
2018-10-11T09:45:31.321Z,22.3
2018-10-11T09:46:31.341Z,22.28
2018-10-11T09:47:31.103Z,22.25
2018-10-11T09:48:31.128Z,22.24
2018-10-11T09:49:30.897Z,22.22
2018-10-11T09:50:31.439Z,22.18
2018-10-11T09:51:31.469Z,22.36
2018-10-11T09:52:30.974Z,22.27
2018-10-11T09:53:31.514Z,22.3
2018-10-11T09:54:31.662Z,22.33
2018-10-11T09:55:31.567Z,22.36
2018-10-11T09:56:31.465Z,22.33
2018-10-11T09:57:31.667Z,22.42
2018-10-11T09:58:31.642Z,22.36
2018-10-11T09:59:31.413Z,22.3
2018-10-11T10:00:31.479Z,22.31
2018-10-11T10:01:31.469Z,22.1
2018-10-11T10:02:46.408Z,22.05
2018-10-11T10:03:31.256Z,22.15
2018-10-11T10:04:31.536Z,22.18
2018-10-11T10:05:31.564Z,22.28
2018-10-11T10:06:31.849Z,22.37
2018-10-11T10:08:31.641Z,22.49
2018-10-11T10:09:31.665Z,22.54
2018-10-11T10:10:46.352Z,22.64
2018-10-11T10:11:31.986Z,22.58
2018-10-11T10:12:31.740Z,22.58
2018-10-11T10:14:32.053Z,22.6
2018-10-11T10:15:32.195Z,22.55
2018-10-11T10:16:32.114Z,22.6
2018-10-11T10:17:32.124Z,22.58
2018-10-11T10:18:46.812Z,22.7
2018-10-11T10:19:32.175Z,22.72
2018-10-11T10:20:31.944Z,22.75
2018-10-11T10:21:32.154Z,22.79
2018-10-11T10:22:32.252Z,22.68
2018-10-11T10:23:32.275Z,22.7
2018-10-11T10:24:32.142Z,22.82
2018-10-11T10:25:31.810Z,22.77
2018-10-11T10:26:46.794Z,22.77
2018-10-11T10:27:32.252Z,22.8
2018-10-11T10:28:32.145Z,22.83
2018-10-11T10:29:32.170Z,22.82
2018-10-11T10:30:32.451Z,22.75
2018-10-11T10:31:31.958Z,22.77
2018-10-11T10:32:32.497Z,22.8
2018-10-11T10:33:47.190Z,22.82
2018-10-11T10:34:47.212Z,22.68
2018-10-11T10:35:32.574Z,22.68
2018-10-11T10:36:32.601Z,22.7
2018-10-11T10:37:32.623Z,22.67
2018-10-11T10:38:32.390Z,22.68
2018-10-11T10:39:32.673Z,22.75
2018-10-11T10:40:32.698Z,22.64
2018-10-11T10:41:32.733Z,22.55
2018-10-11T10:42:47.408Z,22.68
2018-10-11T10:44:32.540Z,22.72
2018-10-11T10:45:32.875Z,22.77
2018-10-11T10:47:32.614Z,22.85
2018-10-11T10:48:32.898Z,22.85
2018-10-11T10:49:47.585Z,22.79
2018-10-11T10:50:32.943Z,22.68
2018-10-11T10:51:32.969Z,22.64
2018-10-11T10:52:33.007Z,22.57
2018-10-11T10:53:47.427Z,22.55
2018-10-11T10:54:33.052Z,22.62
2018-10-11T10:55:33.071Z,22.58
2018-10-11T10:56:33.112Z,22.6
2018-10-11T10:57:33.130Z,22.54
2018-10-11T10:58:47.546Z,22.65
2018-10-11T10:59:33.174Z,22.73
2018-10-11T11:00:33.191Z,22.65
2018-10-11T11:01:33.216Z,22.76
2018-10-11T11:02:32.729Z,22.92
2018-10-11T11:03:47.930Z,22.77
2018-10-11T11:04:47.954Z,22.77
2018-10-11T11:05:33.313Z,22.77
2018-10-11T11:06:33.078Z,22.95
2018-10-11T11:07:33.558Z,22.9
2018-10-11T11:08:33.400Z,22.92
2018-10-11T11:09:33.422Z,22.77
2018-10-11T11:10:33.437Z,22.83
2018-10-11T11:11:33.461Z,22.91
2018-10-11T11:12:33.489Z,22.85
2018-10-11T11:13:48.173Z,22.79
2018-10-11T11:14:33.537Z,22.65
2018-10-11T11:16:33.584Z,22.76
2018-10-11T11:17:33.351Z,22.68
2018-10-11T11:18:33.379Z,22.72
2018-10-11T11:19:33.402Z,22.8
2018-10-11T11:20:33.683Z,22.9
2018-10-11T11:21:33.710Z,22.8
2018-10-11T11:22:33.216Z,22.73
2018-10-11T11:23:33.753Z,22.9
2018-10-11T11:24:33.782Z,22.9
2018-10-11T11:25:33.806Z,23.04
2018-10-11T11:26:33.678Z,23
2018-10-11T11:27:33.855Z,22.98
2018-10-11T11:28:33.622Z,22.92
2018-10-11T11:29:33.905Z,22.94
2018-10-11T11:30:33.669Z,22.98
2018-10-11T11:31:33.954Z,22.98
2018-10-11T11:32:33.459Z,23.01
2018-10-11T11:34:33.773Z,22.95
2018-10-11T11:35:34.058Z,23
2018-10-11T11:36:33.819Z,23.01
2018-10-11T11:37:34.102Z,23.01
2018-10-11T11:38:34.132Z,22.97
2018-10-11T11:39:34.153Z,23.07
2018-10-11T11:40:34.176Z,22.98
2018-10-11T11:41:33.944Z,23
2018-10-11T11:42:34.228Z,23.02
2018-10-11T11:43:34.257Z,23.02
2018-10-11T11:44:34.279Z,23.13
2018-10-11T11:45:49.090Z,23.1
2018-10-11T11:46:34.442Z,23.1
2018-10-11T11:47:34.344Z,23.01
2018-10-11T11:48:34.375Z,23.16
2018-10-11T11:49:34.393Z,23.27
2018-10-11T11:50:34.362Z,23.27
2018-10-11T11:51:34.185Z,23.22
2018-10-11T11:52:34.211Z,23.28
2018-10-11T11:53:34.435Z,23.23
2018-10-11T11:54:34.651Z,23.32
2018-10-11T11:55:34.558Z,23.27
2018-10-11T11:56:34.569Z,23.2
2018-10-11T11:57:34.609Z,23.25
2018-10-11T11:58:34.616Z,23.27
2018-10-11T11:59:34.122Z,23.35
2018-10-11T12:01:49.350Z,23.27
2018-10-11T12:02:34.943Z,23.28
2018-10-11T12:03:34.733Z,23.33
2018-10-11T12:05:34.534Z,23.31
2018-10-11T12:06:34.558Z,23.28
2018-10-11T12:07:34.582Z,23.35
2018-10-11T12:08:49.520Z,23.38
2018-10-11T12:09:34.890Z,23.35
2018-10-11T12:10:35.339Z,23.33
2018-10-11T12:11:34.676Z,23.35
2018-10-11T12:12:34.967Z,23.25
2018-10-11T12:14:35.015Z,23.27
2018-10-11T12:15:35.031Z,23.27
2018-10-11T12:16:35.152Z,23.32
2018-10-11T12:17:49.741Z,23.35
2018-10-11T12:18:35.105Z,23.48
2018-10-11T12:19:35.138Z,23.55
2018-10-11T12:21:34.925Z,23.38
2018-10-11T12:23:35.227Z,23.33
2018-10-11T12:24:35.255Z,23.35
2018-10-11T12:25:35.284Z,23.31
2018-10-11T12:26:49.962Z,23.42
2018-10-11T12:27:35.327Z,23.46
2018-10-11T12:28:35.880Z,23.51
2018-10-11T12:29:35.377Z,23.54
2018-10-11T12:30:35.399Z,23.57
2018-10-11T12:31:35.429Z,23.55
2018-10-11T12:32:35.191Z,23.53
2018-10-11T12:33:50.137Z,23.54
2018-10-11T12:34:35.510Z,23.6
2018-10-11T12:35:35.534Z,23.53
2018-10-11T12:37:35.626Z,23.57
2018-10-11T12:38:35.715Z,23.53
2018-10-11T12:39:36.934Z,23.68
2018-10-11T12:40:50.308Z,23.72
2018-10-11T12:41:35.414Z,23.7
2018-10-11T12:42:35.649Z,23.66
2018-10-11T12:43:35.202Z,23.61
2018-10-11T12:44:35.229Z,23.58
2018-10-11T12:45:35.979Z,23.73
2018-10-11T12:46:42.656Z,23.76
2018-10-11T12:47:35.820Z,23.72
2018-10-11T12:49:46.618Z,23.7
2018-10-11T12:50:35.897Z,23.69
2018-10-11T12:51:35.971Z,23.66
2018-10-11T12:52:35.687Z,23.66
2018-10-11T12:53:50.632Z,23.68
2018-10-11T12:54:36.002Z,23.68
2018-10-11T12:55:35.760Z,23.72
2018-10-11T12:56:36.435Z,23.72
2018-10-11T12:57:36.438Z,23.78
2018-10-11T12:58:36.091Z,23.75
2018-10-11T12:59:35.864Z,23.68
2018-10-11T13:00:36.167Z,23.73
2018-10-11T13:01:36.165Z,23.85
2018-10-11T13:02:36.248Z,23.83
2018-10-11T13:04:36.242Z,23.79
2018-10-11T13:05:36.274Z,23.79
2018-10-11T13:06:36.029Z,23.79
2018-10-11T13:07:36.057Z,23.79
2018-10-11T13:08:36.342Z,23.91
2018-10-11T13:09:51.026Z,23.93
2018-10-11T13:10:36.391Z,23.91
2018-10-11T13:11:51.075Z,23.88
2018-10-11T13:12:36.435Z,23.87
2018-10-11T13:13:36.462Z,23.83
2018-10-11T13:14:36.231Z,23.93
2018-10-11T13:15:36.740Z,23.83
2018-10-11T13:16:36.539Z,23.84
2018-10-11T13:17:40.129Z,23.79
2018-10-11T13:18:36.594Z,24.05
2018-10-11T13:19:36.610Z,24
2018-10-11T13:20:51.314Z,23.87
2018-10-11T13:21:36.659Z,23.93
2018-10-11T13:22:36.430Z,23.94
2018-10-11T13:23:51.391Z,23.84
2018-10-11T13:24:39.764Z,23.84
2018-10-11T13:25:36.758Z,23.75
2018-10-11T13:26:36.864Z,23.79
2018-10-11T13:27:36.805Z,23.9
2018-10-11T13:28:36.834Z,23.83
2018-10-11T13:29:51.517Z,23.94
2018-10-11T13:30:36.893Z,23.88
2018-10-11T13:31:36.906Z,23.85
2018-10-11T13:32:36.932Z,23.9
2018-10-11T13:33:36.697Z,23.9
2018-10-11T13:34:51.789Z,23.95
2018-10-11T13:35:36.781Z,23.94
2018-10-11T13:36:51.692Z,24.03
2018-10-11T13:38:37.079Z,23.97
2018-10-11T13:39:37.107Z,24.08
2018-10-11T13:40:37.402Z,24.06
2018-10-11T13:41:37.371Z,24
2018-10-11T13:42:36.921Z,23.97
2018-10-11T13:43:36.688Z,23.91
2018-10-11T13:44:37.330Z,23.93
2018-10-11T13:45:37.269Z,23.85
2018-10-11T13:46:37.283Z,23.9
2018-10-11T13:47:44.859Z,23.95
2018-10-11T13:48:37.334Z,23.98
2018-10-11T13:49:37.350Z,24
2018-10-11T13:50:37.376Z,24.02
2018-10-11T13:51:37.145Z,24.03
2018-10-11T13:52:52.134Z,23.98
2018-10-11T13:53:37.194Z,24.02